createdAt,value
2023-03-12T08:54:40.041Z,3.62
2023-03-12T08:56:43.967Z,4.00
2023-03-12T08:58:46.957Z,3.70
2023-03-12T09:01:02.514Z,4.68
2023-03-12T09:03:12.808Z,3.72
2023-03-12T09:05:16.743Z,4.40
2023-03-12T09:07:25.639Z,4.47
2023-03-12T09:09:31.423Z,5.50
2023-03-12T09:11:47.958Z,4.18
2023-03-12T09:14:33.404Z,4.57
2023-03-12T09:16:26.028Z,4.25
2023-03-12T09:18:32.974Z,4.15
2023-03-12T09:20:40.902Z,3.87
2023-03-12T09:22:45.675Z,5.40
2023-03-12T09:24:48.458Z,3.87
2023-03-12T09:26:51.137Z,4.80
2023-03-12T09:28:54.229Z,4.30
2023-03-12T09:30:57.129Z,4.35
2023-03-12T09:33:02.314Z,3.92
2023-03-12T09:35:07.424Z,4.10
2023-03-12T09:37:10.819Z,3.95
2023-03-12T09:39:13.682Z,3.55
2023-03-12T09:41:32.164Z,3.65
2023-03-12T09:43:47.568Z,3.67
2023-03-12T09:45:52.236Z,4.28
2023-03-12T09:48:02.195Z,3.85
2023-03-12T09:50:20.573Z,4.10
2023-03-12T09:52:57.136Z,4.22
2023-03-12T09:55:20.061Z,4.62
2023-03-12T09:57:26.836Z,3.42
2023-03-12T09:59:29.998Z,6.35
2023-03-12T10:01:39.516Z,4.87
2023-03-12T10:04:01.091Z,2.92
2023-03-12T10:08:36.423Z,3.47
2023-03-12T10:11:08.720Z,3.53
2023-03-12T10:13:40.773Z,3.20
2023-03-12T10:16:21.586Z,3.33
2023-03-12T10:18:56.560Z,3.60
2023-03-12T10:21:25.182Z,3.08
2023-03-12T10:23:50.166Z,3.35
2023-03-12T10:26:03.550Z,3.60
2023-03-12T10:28:20.906Z,3.22
2023-03-12T10:30:27.380Z,3.25
2023-03-12T10:32:44.704Z,3.58
2023-03-12T10:35:00.844Z,4.45
2023-03-12T10:37:27.419Z,3.78
2023-03-12T10:39:30.861Z,3.92
2023-03-12T10:41:35.173Z,3.20
2023-03-12T10:43:39.961Z,3.85
2023-03-12T10:46:16.829Z,3.40
2023-03-12T10:48:22.844Z,3.03
2023-03-12T10:50:28.762Z,4.37
2023-03-12T10:52:33.317Z,3.75
2023-03-12T10:54:41.545Z,2.85
2023-03-12T10:56:51.503Z,3.08
2023-03-12T10:58:55.480Z,3.45
2023-03-12T11:01:01.974Z,3.28
2023-03-12T11:03:07.452Z,4.03
2023-03-12T11:05:29.994Z,3.30
2023-03-12T11:07:37.823Z,3.03
2023-03-12T11:09:41.274Z,3.20
2023-03-12T11:11:47.759Z,2.87
2023-03-12T11:14:25.778Z,3.25
2023-03-12T11:16:32.335Z,3.65
2023-03-12T11:18:38.440Z,2.15
2023-03-12T11:20:42.838Z,2.62
2023-03-12T11:22:46.471Z,2.53
2023-03-12T11:24:59.816Z,2.03
2023-03-12T11:27:20.581Z,1.67
2023-03-12T11:29:51.048Z,1.70
2023-03-12T11:32:00.921Z,1.48
2023-03-12T11:34:23.096Z,1.77
2023-03-12T11:37:15.684Z,2.45
2023-03-12T11:39:46.003Z,1.87
2023-03-12T11:42:26.869Z,1.35
2023-03-12T11:44:53.049Z,1.70
2023-03-12T11:47:14.903Z,2.30
2023-03-12T11:49:30.402Z,2.00
2023-03-12T11:51:59.969Z,2.00
2023-03-12T11:54:31.680Z,1.50
2023-03-12T11:56:46.832Z,1.50
2023-03-12T11:58:56.262Z,1.62
2023-03-12T12:01:05.449Z,1.87
2023-03-12T12:03:27.981Z,1.58
2023-03-12T12:06:06.379Z,1.30
2023-03-12T12:08:33.495Z,1.10
2023-03-12T12:10:59.201Z,1.12
2023-03-12T12:13:15.530Z,1.17
2023-03-12T12:15:33.797Z,1.30
2023-03-12T12:17:57.121Z,1.30
2023-03-12T12:20:38.182Z,1.20
2023-03-12T12:23:03.133Z,1.50
2023-03-12T12:25:06.604Z,1.20
2023-03-12T12:27:43.875Z,1.20
2023-03-12T12:30:36.514Z,1.42
2023-03-12T12:33:00.529Z,1.50
2023-03-12T12:35:41.369Z,1.70
2023-03-12T12:40:44.876Z,2.47
2023-03-12T12:43:20.625Z,1.30
2023-03-12T12:45:26.894Z,3.47
2023-03-12T12:47:44.038Z,1.60
2023-03-12T12:50:00.695Z,1.67
2023-03-12T12:52:08.585Z,1.35
2023-03-12T12:54:43.236Z,1.60
2023-03-12T12:56:53.590Z,1.42
2023-03-12T12:59:06.979Z,1.60
2023-03-12T13:01:15.799Z,1.33
2023-03-12T13:03:24.913Z,1.45
2023-03-12T13:05:37.063Z,1.55
2023-03-12T13:07:50.502Z,1.20
2023-03-12T13:09:55.856Z,1.60
2023-03-12T13:11:59.535Z,1.40
2023-03-12T13:14:06.833Z,1.30
2023-03-12T13:16:29.928Z,1.10
2023-03-12T13:18:33.519Z,1.10
2023-03-12T13:21:10.061Z,2.78
2023-03-12T13:23:32.308Z,1.25
2023-03-12T13:25:53.642Z,1.45
2023-03-12T13:28:33.145Z,1.23
2023-03-12T13:30:36.167Z,1.48
2023-03-12T13:32:59.995Z,1.30
2023-03-12T13:35:31.150Z,1.75
2023-03-12T13:37:57.410Z,1.67
2023-03-12T13:40:02.812Z,1.58
2023-03-12T13:42:37.813Z,1.50
2023-03-12T13:44:43.750Z,1.87
2023-03-12T13:46:48.591Z,2.08
2023-03-12T13:48:52.554Z,1.85
2023-03-12T13:51:00.021Z,2.00
2023-03-12T13:53:08.757Z,1.58
2023-03-12T13:55:30.849Z,1.90
2023-03-12T13:57:41.737Z,1.52
2023-03-12T13:59:50.258Z,1.70
2023-03-12T14:02:03.300Z,1.60
2023-03-12T14:04:20.620Z,1.70
2023-03-12T14:06:34.526Z,1.50
2023-03-12T14:09:18.809Z,1.23
2023-03-12T14:11:44.362Z,1.65
2023-03-12T14:14:07.788Z,1.30
2023-03-12T14:16:29.117Z,1.52
2023-03-12T14:18:36.475Z,1.25
2023-03-12T14:20:42.606Z,3.58
2023-03-12T14:22:51.995Z,2.85
2023-03-12T14:25:05.494Z,1.40
2023-03-12T14:27:22.145Z,1.00
2023-03-12T14:29:58.025Z,1.15
2023-03-12T14:32:06.574Z,0.90
2023-03-12T14:34:17.503Z,1.20
2023-03-12T14:38:39.710Z,1.80
2023-03-12T14:40:46.944Z,1.58
2023-03-12T14:42:52.823Z,1.73
2023-03-12T14:45:11.705Z,1.20
2023-03-12T14:47:18.921Z,1.52
2023-03-12T14:49:22.130Z,1.02
2023-03-12T14:51:29.030Z,1.42
2023-03-12T14:53:38.239Z,1.27
2023-03-12T14:55:41.155Z,1.80
2023-03-12T14:57:45.962Z,1.50
2023-03-12T14:59:57.746Z,1.33
2023-03-12T15:02:19.297Z,1.83
2023-03-12T15:04:25.765Z,1.80
2023-03-12T15:06:33.374Z,2.55
2023-03-12T15:08:44.045Z,1.70
2023-03-12T15:10:59.685Z,1.87
2023-03-12T15:13:05.479Z,1.42
2023-03-12T15:15:36.476Z,1.35
2023-03-12T15:17:40.715Z,1.80
2023-03-12T15:19:44.375Z,1.42
2023-03-12T15:21:48.674Z,1.67
2023-03-12T15:24:00.916Z,1.55
2023-03-12T15:26:14.285Z,1.60
2023-03-12T15:28:21.779Z,1.50
2023-03-12T15:30:28.431Z,1.75
2023-03-12T15:32:34.683Z,1.70
2023-03-12T15:34:42.717Z,1.55
2023-03-12T15:36:51.000Z,2.00
2023-03-12T15:39:06.004Z,1.35
2023-03-12T15:41:10.802Z,1.20
2023-03-12T15:43:21.824Z,1.33
2023-03-12T15:45:34.562Z,1.50
2023-03-12T15:47:41.559Z,1.70
2023-03-12T15:49:59.188Z,1.77
2023-03-12T15:52:20.713Z,1.62
2023-03-12T15:54:29.686Z,2.10
2023-03-12T15:56:39.360Z,1.33
2023-03-12T15:58:46.911Z,1.65
2023-03-12T16:00:53.537Z,1.48
2023-03-12T16:03:06.113Z,1.98
2023-03-12T16:05:35.296Z,2.10
2023-03-12T16:07:39.721Z,1.95
2023-03-12T16:09:47.569Z,1.37
2023-03-12T16:14:38.849Z,1.37
2023-03-12T16:16:47.874Z,1.15
2023-03-12T16:18:51.648Z,1.98
2023-03-12T16:20:56.684Z,1.60
2023-03-12T16:23:01.904Z,1.55
2023-03-12T16:25:06.536Z,1.73
2023-03-12T16:27:23.730Z,1.85
2023-03-12T16:29:46.315Z,1.90
2023-03-12T16:31:57.710Z,1.60
2023-03-12T16:34:03.472Z,1.87
2023-03-12T16:36:18.238Z,1.75
2023-03-12T16:38:26.699Z,1.30
2023-03-12T16:40:36.371Z,1.83
2023-03-12T16:42:46.314Z,1.30
2023-03-12T16:44:53.559Z,1.85
2023-03-12T16:46:58.932Z,1.85
2023-03-12T16:49:04.595Z,2.12
2023-03-12T16:51:15.711Z,2.00
2023-03-12T16:53:21.357Z,3.03
2023-03-12T16:55:32.006Z,2.58
2023-03-12T16:57:40.972Z,2.42
2023-03-12T16:59:44.932Z,2.60
2023-03-12T17:01:50.375Z,1.98
2023-03-12T17:03:56.541Z,2.00
2023-03-12T17:06:04.990Z,2.10
2023-03-12T17:08:16.136Z,1.98
2023-03-12T17:10:23.968Z,2.30
2023-03-12T17:12:38.308Z,2.60
2023-03-12T17:14:44.429Z,2.50
2023-03-12T17:17:00.877Z,3.33
2023-03-12T17:19:04.920Z,2.20
2023-03-12T17:21:14.788Z,2.28
2023-03-12T17:23:21.251Z,2.60
2023-03-12T17:25:31.635Z,2.20
2023-03-12T17:27:35.357Z,4.85
2023-03-12T17:29:43.024Z,2.78
2023-03-12T17:31:47.090Z,3.30
2023-03-12T17:33:52.238Z,2.60
2023-03-12T17:36:08.924Z,3.03
2023-03-12T17:38:17.870Z,1.85
2023-03-12T17:40:24.071Z,3.92
2023-03-12T17:42:29.858Z,2.62
2023-03-12T17:44:40.881Z,3.30
2023-03-12T17:47:09.683Z,2.67
2023-03-12T17:49:16.935Z,2.92
2023-03-12T17:51:23.945Z,2.92
2023-03-12T17:53:30.185Z,2.83
2023-03-12T17:55:37.278Z,2.72
2023-03-12T17:57:43.020Z,2.95
2023-03-12T17:59:50.250Z,2.67
2023-03-12T18:01:58.352Z,3.55
2023-03-12T18:04:09.267Z,3.00
2023-03-12T18:06:14.657Z,3.42
2023-03-12T18:08:21.672Z,3.65
2023-03-12T18:10:28.419Z,2.95
2023-03-12T18:12:37.100Z,3.22
2023-03-12T18:14:42.922Z,3.53
2023-03-12T18:16:48.935Z,3.12
2023-03-12T18:18:53.550Z,4.22
2023-03-12T18:20:59.377Z,3.47
2023-03-12T18:23:06.116Z,3.35
2023-03-12T18:25:12.577Z,3.10
2023-03-12T18:27:17.375Z,3.40
2023-03-12T18:29:23.007Z,3.22
2023-03-12T18:31:26.958Z,3.20
2023-03-12T18:33:32.301Z,3.35
2023-03-12T18:35:38.492Z,3.37
2023-03-12T18:38:03.029Z,3.85
2023-03-12T18:40:09.210Z,3.35
2023-03-12T18:42:19.123Z,6.62
2023-03-12T18:44:23.995Z,3.72
2023-03-12T18:46:30.511Z,4.68
2023-03-12T18:48:44.251Z,3.97
2023-03-12T18:50:49.736Z,4.75
2023-03-12T18:52:55.281Z,4.65
2023-03-12T18:55:01.142Z,4.40
2023-03-12T18:57:05.883Z,4.50
2023-03-12T18:59:16.611Z,4.20
2023-03-12T19:01:23.012Z,4.90
2023-03-12T19:03:36.679Z,5.60
2023-03-12T19:05:41.580Z,4.45
2023-03-12T19:07:48.217Z,6.18
2023-03-12T19:09:53.879Z,6.45
2023-03-12T19:12:04.073Z,5.32
2023-03-12T19:14:17.200Z,6.05
2023-03-12T19:16:25.218Z,7.05
2023-03-12T19:18:30.112Z,7.50
2023-03-12T19:20:37.374Z,6.45
2023-03-12T19:22:42.762Z,6.78
2023-03-12T19:24:49.505Z,6.57
2023-03-12T19:26:55.259Z,7.40
2023-03-12T19:29:01.413Z,8.73
2023-03-12T19:31:11.729Z,9.25
2023-03-12T19:33:18.901Z,10.93
2023-03-12T19:35:30.969Z,10.45
2023-03-12T19:37:35.623Z,10.57
2023-03-12T19:39:40.188Z,11.35
2023-03-12T19:41:45.409Z,11.10
2023-03-12T19:43:50.883Z,11.12
2023-03-12T19:46:02.009Z,11.45
2023-03-12T19:48:07.605Z,12.95
2023-03-12T19:50:13.480Z,10.93
2023-03-12T19:52:21.498Z,11.38
2023-03-12T19:54:24.731Z,10.82
2023-03-12T19:56:31.804Z,10.85
2023-03-12T19:58:36.684Z,11.38
2023-03-12T20:00:42.012Z,12.15
2023-03-12T20:02:48.267Z,11.18
2023-03-12T20:04:52.549Z,11.40
2023-03-12T20:06:57.027Z,10.90
2023-03-12T20:09:03.223Z,8.82
2023-03-12T20:11:10.461Z,9.05
2023-03-12T20:13:19.856Z,9.45
2023-03-12T20:15:44.288Z,11.80
2023-03-12T20:17:55.215Z,9.43
2023-03-12T20:20:00.142Z,11.55
2023-03-12T20:22:07.162Z,11.20
2023-03-12T20:24:16.152Z,10.43
2023-03-12T20:26:24.595Z,10.75
2023-03-12T20:28:43.346Z,9.68
2023-03-12T20:30:51.246Z,10.85
2023-03-12T20:32:55.403Z,11.60
2023-03-12T20:35:00.144Z,12.20
2023-03-12T20:37:05.776Z,11.18
2023-03-12T20:39:10.164Z,10.35
2023-03-12T20:41:16.255Z,10.77
2023-03-12T20:43:24.652Z,11.30
2023-03-12T20:45:28.252Z,10.32
2023-03-12T20:47:32.053Z,11.73
2023-03-12T20:49:38.551Z,11.80
2023-03-12T20:51:46.673Z,11.02
2023-03-12T20:53:51.911Z,10.13
2023-03-12T20:55:57.068Z,11.65
2023-03-12T20:58:01.910Z,10.73
2023-03-12T21:00:07.651Z,11.18
2023-03-12T21:02:15.679Z,11.32
2023-03-12T21:04:21.944Z,11.23
2023-03-12T21:06:25.771Z,9.95
2023-03-12T21:08:31.643Z,11.07
2023-03-12T21:10:39.099Z,12.00
2023-03-12T21:12:42.788Z,11.75
2023-03-12T21:14:49.081Z,11.63
2023-03-12T21:16:52.396Z,11.60
2023-03-12T21:18:57.150Z,12.00
2023-03-12T21:21:08.079Z,11.82
2023-03-12T21:23:12.508Z,11.80
2023-03-12T21:25:17.144Z,12.82
2023-03-12T21:27:21.337Z,12.00
2023-03-12T21:29:24.358Z,12.43
2023-03-12T21:31:27.400Z,13.50
2023-03-12T21:33:30.853Z,14.30
2023-03-12T21:35:37.213Z,14.95
2023-03-12T21:37:40.903Z,14.63
2023-03-12T21:39:44.751Z,14.98
2023-03-12T21:41:48.789Z,15.07
2023-03-12T21:43:52.362Z,15.05
2023-03-12T21:45:56.259Z,15.60
2023-03-12T21:47:59.516Z,14.20
2023-03-12T21:50:02.305Z,14.87
2023-03-12T21:52:06.079Z,15.23
2023-03-12T21:54:08.841Z,15.07
2023-03-12T21:56:12.227Z,13.23
2023-03-12T21:58:15.342Z,13.32
2023-03-12T22:00:18.373Z,14.65
2023-03-12T22:02:21.599Z,17.58
2023-03-12T22:04:24.901Z,12.73
2023-03-12T22:06:28.244Z,14.13
2023-03-12T22:08:32.577Z,13.40
2023-03-12T22:10:35.308Z,12.65
2023-03-12T22:12:39.886Z,13.60
2023-03-12T22:14:43.162Z,11.70
2023-03-12T22:16:45.862Z,12.18
2023-03-12T22:18:48.953Z,11.98
2023-03-12T22:20:56.841Z,11.48
2023-03-12T22:22:59.493Z,10.82
2023-03-12T22:25:02.007Z,10.65
2023-03-12T22:27:07.601Z,11.52
2023-03-12T22:29:10.445Z,11.82
2023-03-12T22:31:13.245Z,12.80
2023-03-12T22:33:16.557Z,10.00
2023-03-12T22:35:26.119Z,12.02
2023-03-12T22:37:28.777Z,12.07
2023-03-12T22:39:32.126Z,11.82
2023-03-12T22:41:34.892Z,11.60
